createdAt,value
2018-10-21T00:01:27.009Z,15.07
2018-10-21T00:04:01.778Z,16.77
2018-10-21T00:06:36.529Z,17.40
2018-10-21T00:09:12.782Z,16.37
2018-10-21T00:11:47.399Z,15.90
2018-10-21T00:14:22.857Z,16.50
2018-10-21T00:16:57.704Z,15.50
2018-10-21T00:19:32.309Z,18.27
2018-10-21T00:22:07.184Z,17.43
2018-10-21T00:24:41.813Z,17.30
2018-10-21T00:27:16.713Z,15.33
2018-10-21T00:29:51.300Z,18.80
2018-10-21T00:32:30.017Z,17.87
2018-10-21T00:35:05.125Z,16.37
2018-10-21T00:37:39.936Z,18.60
2018-10-21T00:40:14.770Z,17.53
2018-10-21T00:42:49.412Z,19.40
2018-10-21T00:45:23.957Z,17.47
2018-10-21T00:47:58.480Z,17.90
2018-10-21T00:50:33.097Z,18.93
2018-10-21T00:53:07.634Z,18.77
2018-10-21T00:55:42.368Z,17.53
2018-10-21T00:58:17.221Z,19.57
2018-10-21T01:00:51.870Z,20.10
2018-10-21T01:03:26.395Z,20.43
2018-10-21T01:06:01.007Z,20.07
2018-10-21T01:08:35.819Z,19.27
2018-10-21T01:11:10.511Z,19.10
2018-10-21T01:13:45.176Z,20.90
2018-10-21T01:16:19.758Z,20.00
2018-10-21T01:18:54.402Z,21.27
2018-10-21T01:21:29.036Z,19.90
2018-10-21T01:24:03.708Z,20.20
2018-10-21T01:26:38.364Z,21.80
2018-10-21T01:29:12.858Z,21.07
2018-10-21T01:31:47.508Z,21.17
2018-10-21T01:34:22.213Z,19.30
2018-10-21T01:36:56.935Z,21.93
2018-10-21T01:40:45.741Z,22.67
2018-10-21T01:43:21.726Z,23.30
2018-10-21T01:45:56.826Z,21.77
2018-10-21T01:48:32.361Z,23.23
2018-10-21T01:51:06.912Z,22.23
2018-10-21T01:53:41.762Z,23.23
2018-10-21T01:56:16.368Z,23.70
2018-10-21T01:58:51.157Z,23.53
2018-10-21T02:01:25.595Z,22.63
2018-10-21T02:04:00.135Z,22.40
2018-10-21T02:06:34.750Z,22.03
2018-10-21T02:09:09.423Z,22.20
2018-10-21T02:11:43.981Z,23.80
2018-10-21T02:14:18.641Z,22.70
2018-10-21T02:16:53.241Z,23.20
2018-10-21T02:19:27.922Z,24.47
2018-10-21T02:22:02.518Z,25.70
2018-10-21T02:24:37.204Z,22.20
2018-10-21T02:27:12.265Z,24.77
2018-10-21T02:29:46.772Z,21.80
2018-10-21T02:32:21.370Z,23.47
2018-10-21T02:34:55.971Z,22.73
2018-10-21T02:37:30.438Z,25.20
2018-10-21T02:40:05.613Z,25.00
2018-10-21T02:42:40.249Z,25.37
2018-10-21T02:45:14.878Z,26.23
2018-10-21T02:47:49.435Z,25.97
2018-10-21T02:50:24.184Z,27.30
2018-10-21T02:52:58.881Z,25.70
2018-10-21T02:55:33.430Z,26.60
2018-10-21T02:58:08.083Z,27.53
2018-10-21T03:00:42.678Z,28.53
2018-10-21T03:03:17.183Z,24.90
2018-10-21T03:05:51.741Z,26.27
2018-10-21T03:08:26.508Z,26.80
2018-10-21T03:11:01.419Z,27.80
2018-10-21T03:13:36.106Z,26.73
2018-10-21T03:16:10.861Z,28.20
2018-10-21T03:18:45.558Z,26.93
2018-10-21T03:21:20.241Z,26.10
2018-10-21T03:23:54.896Z,27.50
2018-10-21T03:26:29.421Z,27.50
2018-10-21T03:29:03.893Z,26.57
2018-10-21T03:31:38.581Z,27.90
2018-10-21T03:34:13.332Z,26.67
2018-10-21T03:36:47.909Z,28.57
2018-10-21T03:39:22.496Z,29.70
2018-10-21T03:41:57.221Z,28.10
2018-10-21T03:44:31.709Z,29.27
2018-10-21T03:47:06.368Z,27.73
2018-10-21T03:49:41.050Z,28.60
2018-10-21T03:52:15.728Z,28.50
2018-10-21T03:54:50.392Z,30.13
2018-10-21T03:57:24.983Z,29.37
2018-10-21T03:59:59.756Z,28.00
2018-10-21T04:02:34.345Z,27.40
2018-10-21T04:05:09.119Z,27.07
2018-10-21T04:07:43.594Z,28.67
2018-10-21T04:10:18.143Z,31.63
2018-10-21T04:12:52.716Z,30.20
2018-10-21T04:15:27.313Z,30.90
2018-10-21T04:18:01.970Z,30.43
2018-10-21T04:20:36.652Z,31.93
2018-10-21T04:23:11.008Z,32.60
2018-10-21T04:25:45.661Z,32.03
2018-10-21T04:28:20.364Z,31.83
2018-10-21T04:30:54.779Z,33.43
2018-10-21T04:33:44.701Z,32.57
2018-10-21T04:36:22.179Z,32.50
2018-10-21T04:40:09.355Z,33.70
2018-10-21T04:42:44.283Z,33.47
2018-10-21T04:45:20.193Z,34.77
2018-10-21T04:47:54.774Z,31.80
2018-10-21T04:50:29.452Z,33.50
2018-10-21T04:53:04.114Z,33.07
2018-10-21T04:55:38.703Z,33.53
2018-10-21T04:58:13.343Z,34.57
2018-10-21T05:00:48.032Z,32.43
2018-10-21T05:03:22.628Z,30.10
2018-10-21T05:05:57.173Z,33.17
2018-10-21T05:08:31.729Z,31.70
2018-10-21T05:11:06.462Z,31.73
2018-10-21T05:13:41.043Z,30.00
2018-10-21T05:16:15.781Z,30.60
2018-10-21T05:18:50.284Z,32.03
2018-10-21T05:21:24.898Z,31.53
2018-10-21T05:23:59.622Z,29.63
2018-10-21T05:26:34.209Z,30.87
2018-10-21T05:29:08.860Z,32.57
2018-10-21T05:31:43.454Z,31.83
2018-10-21T05:34:18.130Z,28.80
2018-10-21T05:36:52.669Z,29.33
2018-10-21T05:39:27.462Z,30.80
2018-10-21T05:42:02.152Z,29.80
2018-10-21T05:44:36.682Z,29.83
2018-10-21T05:47:11.422Z,30.00
2018-10-21T05:49:46.036Z,30.60
2018-10-21T05:52:20.693Z,31.47
2018-10-21T05:54:55.201Z,30.10
2018-10-21T05:57:29.797Z,31.67
2018-10-21T06:00:06.031Z,31.57
2018-10-21T06:02:40.582Z,32.67
2018-10-21T06:05:37.757Z,30.27
2018-10-21T06:08:12.400Z,30.13
2018-10-21T06:10:47.148Z,31.77
2018-10-21T06:13:21.621Z,29.47
2018-10-21T06:15:56.187Z,29.43
2018-10-21T06:18:30.923Z,30.60
2018-10-21T06:21:06.152Z,33.33
2018-10-21T06:23:40.837Z,33.70
2018-10-21T06:26:15.505Z,30.73
2018-10-21T06:28:50.117Z,33.67
2018-10-21T06:31:24.777Z,30.73
2018-10-21T06:33:59.499Z,28.87
2018-10-21T06:36:34.140Z,31.10
2018-10-21T06:39:09.076Z,28.47
2018-10-21T06:41:43.628Z,32.57
2018-10-21T06:44:18.396Z,29.53
2018-10-21T06:46:53.176Z,30.10
2018-10-21T06:49:27.832Z,29.30
2018-10-21T06:52:02.394Z,28.57
2018-10-21T06:54:37.083Z,28.13
2018-10-21T06:57:17.828Z,27.70
2018-10-21T06:59:52.576Z,31.43
2018-10-21T07:02:27.261Z,30.37
2018-10-21T07:05:02.020Z,28.60
2018-10-21T07:07:36.751Z,27.20
2018-10-21T07:10:11.667Z,28.37
2018-10-21T07:12:46.133Z,26.10
2018-10-21T07:15:21.093Z,28.03
2018-10-21T07:17:55.780Z,27.40
2018-10-21T07:20:30.368Z,26.77
2018-10-21T07:23:05.134Z,25.53
2018-10-21T07:25:39.604Z,26.63
2018-10-21T07:28:14.295Z,25.27
2018-10-21T07:30:48.945Z,26.80
2018-10-21T07:33:23.641Z,25.13
2018-10-21T07:35:58.484Z,25.53
2018-10-21T07:38:33.105Z,22.77
2018-10-21T07:41:07.607Z,24.57
2018-10-21T07:43:42.406Z,22.87
2018-10-21T07:46:17.163Z,22.30
2018-10-21T07:48:51.929Z,23.90
2018-10-21T07:51:26.541Z,23.97
2018-10-21T07:54:01.271Z,24.10
2018-10-21T07:56:36.083Z,23.80
2018-10-21T07:59:10.789Z,23.80
2018-10-21T08:01:45.370Z,23.57
2018-10-21T08:04:20.062Z,23.50
2018-10-21T08:08:07.232Z,23.77
2018-10-21T08:10:41.957Z,24.77
2018-10-21T08:13:20.779Z,24.10
2018-10-21T08:15:55.591Z,25.70
2018-10-21T08:18:30.397Z,24.30
2018-10-21T08:21:05.128Z,24.87
2018-10-21T08:23:39.682Z,23.87
2018-10-21T08:26:14.372Z,24.37
2018-10-21T08:28:49.038Z,24.53
2018-10-21T08:31:23.593Z,24.87
2018-10-21T08:33:58.133Z,25.17
2018-10-21T08:36:32.810Z,25.50
2018-10-21T08:39:07.841Z,23.30
2018-10-21T08:41:42.613Z,25.40
2018-10-21T08:44:17.404Z,25.40
2018-10-21T08:46:51.997Z,24.70
2018-10-21T08:49:26.921Z,25.30
2018-10-21T08:52:01.554Z,25.80
2018-10-21T08:54:36.272Z,24.63
2018-10-21T08:57:11.039Z,24.77
2018-10-21T08:59:45.701Z,23.80
2018-10-21T09:02:20.381Z,23.90
2018-10-21T09:04:55.225Z,24.03
2018-10-21T09:07:29.825Z,21.57
2018-10-21T09:10:05.014Z,25.37
2018-10-21T09:12:39.814Z,27.30
2018-10-21T09:15:15.967Z,24.10
2018-10-21T09:17:50.602Z,25.50
2018-10-21T09:20:25.143Z,25.33
2018-10-21T09:22:59.813Z,25.00
2018-10-21T09:25:34.681Z,26.13
2018-10-21T09:28:09.348Z,23.63
2018-10-21T09:30:43.969Z,24.60
2018-10-21T09:33:18.765Z,25.20
2018-10-21T09:35:53.385Z,23.20
2018-10-21T09:38:28.139Z,25.20
2018-10-21T09:41:02.947Z,25.50
2018-10-21T09:43:37.559Z,24.60
2018-10-21T09:46:12.358Z,24.27
2018-10-21T09:48:47.097Z,26.30
2018-10-21T09:51:21.694Z,26.97
2018-10-21T09:53:56.429Z,25.90
2018-10-21T09:56:30.990Z,26.87
2018-10-21T09:59:05.925Z,24.43
2018-10-21T10:01:45.940Z,22.23
2018-10-21T10:04:20.761Z,24.83
2018-10-21T10:06:55.357Z,23.90
2018-10-21T10:09:30.071Z,21.40
2018-10-21T10:12:04.782Z,19.47
2018-10-21T10:14:39.492Z,17.57
2018-10-21T10:17:14.065Z,19.30
2018-10-21T10:19:48.817Z,19.17
2018-10-21T10:22:23.558Z,17.27
2018-10-21T10:24:58.092Z,20.07
2018-10-21T10:27:32.660Z,17.70
2018-10-21T10:30:09.651Z,16.80
2018-10-21T10:32:44.601Z,17.67
2018-10-21T10:35:19.372Z,16.97
2018-10-21T10:37:54.106Z,17.70
2018-10-21T10:40:28.730Z,15.13
2018-10-21T10:43:03.526Z,14.73
2018-10-21T10:45:38.041Z,15.77
2018-10-21T10:48:12.861Z,16.00
2018-10-21T10:50:47.738Z,21.27
2018-10-21T10:53:22.428Z,16.63
2018-10-21T10:55:57.279Z,16.90
2018-10-21T10:58:31.848Z,17.80
2018-10-21T11:01:06.626Z,16.47
2018-10-21T11:03:41.305Z,15.67
2018-10-21T11:06:15.994Z,18.20
2018-10-21T11:08:50.705Z,17.77
2018-10-21T11:11:25.185Z,18.70
2018-10-21T11:13:59.974Z,14.80
2018-10-21T11:16:34.474Z,15.30
2018-10-21T11:19:08.965Z,16.07
2018-10-21T11:21:43.750Z,17.40
2018-10-21T11:24:18.380Z,17.67
2018-10-21T11:26:52.946Z,17.63
2018-10-21T11:29:27.599Z,19.37
2018-10-21T11:32:02.337Z,17.87
2018-10-21T11:34:37.556Z,16.47
2018-10-21T11:37:12.148Z,14.37
2018-10-21T11:39:46.820Z,13.67
2018-10-21T11:42:21.610Z,15.00
2018-10-21T11:44:56.169Z,16.03
2018-10-21T11:47:30.792Z,17.30
2018-10-21T11:50:06.834Z,16.43
2018-10-21T11:52:41.399Z,17.33
2018-10-21T11:55:17.045Z,17.30
2018-10-21T11:57:51.496Z,12.60
2018-10-21T12:00:26.058Z,14.20
2018-10-21T12:03:00.637Z,13.37
2018-10-21T12:05:35.236Z,13.37
2018-10-21T12:08:10.187Z,13.30
2018-10-21T12:10:44.802Z,17.13
2018-10-21T12:13:19.352Z,10.90
2018-10-21T12:15:53.920Z,11.67
2018-10-21T12:18:28.524Z,11.50
2018-10-21T12:21:03.235Z,12.17
2018-10-21T12:23:37.802Z,12.00
2018-10-21T12:26:12.474Z,10.70
2018-10-21T12:28:46.984Z,10.77
2018-10-21T12:31:21.573Z,10.03
2018-10-21T12:33:56.203Z,10.53
2018-10-21T12:36:30.925Z,11.97
2018-10-21T12:39:08.045Z,13.80
2018-10-21T12:41:43.188Z,11.47
2018-10-21T12:44:17.776Z,9.97
2018-10-21T12:46:53.148Z,11.17
2018-10-21T12:49:27.704Z,13.80
2018-10-21T12:52:02.349Z,13.77
2018-10-21T12:54:36.856Z,15.60
2018-10-21T12:57:11.496Z,18.67
2018-10-21T12:59:46.173Z,16.80
2018-10-21T13:02:20.866Z,17.47
2018-10-21T13:04:55.448Z,15.90
2018-10-21T13:07:29.970Z,14.80
2018-10-21T13:10:05.100Z,12.60
2018-10-21T13:12:39.705Z,14.00
2018-10-21T13:15:14.316Z,11.83
2018-10-21T13:17:48.816Z,9.97
2018-10-21T13:20:23.474Z,11.63
2018-10-21T13:22:58.258Z,11.20
2018-10-21T13:25:32.703Z,8.53
2018-10-21T13:28:07.334Z,9.50
2018-10-21T13:30:41.870Z,7.77
2018-10-21T13:33:16.505Z,8.43
2018-10-21T13:35:51.118Z,7.90
2018-10-21T13:38:25.727Z,7.37
2018-10-21T13:41:00.387Z,8.17
2018-10-21T13:43:34.998Z,8.30
2018-10-21T13:46:09.780Z,8.93
2018-10-21T13:48:44.285Z,11.63
2018-10-21T13:51:18.883Z,9.83
2018-10-21T13:53:53.574Z,10.30
2018-10-21T13:56:28.220Z,9.23
2018-10-21T13:59:02.945Z,8.80
2018-10-21T14:01:37.470Z,7.90
2018-10-21T14:04:12.135Z,7.33
2018-10-21T14:06:46.730Z,7.87
2018-10-21T14:09:21.239Z,7.23
2018-10-21T14:11:55.652Z,7.83
2018-10-21T14:14:30.280Z,7.10
2018-10-21T14:17:04.812Z,13.10
2018-10-21T14:19:39.637Z,13.13
2018-10-21T14:22:14.441Z,9.23
2018-10-21T14:24:49.044Z,9.83
2018-10-21T14:27:23.645Z,8.53
2018-10-21T14:29:58.321Z,8.87
2018-10-21T14:32:32.872Z,8.60
2018-10-21T14:35:08.928Z,10.53
2018-10-21T14:37:43.574Z,9.40
2018-10-21T14:40:21.961Z,8.30
2018-10-21T14:42:56.662Z,11.07
2018-10-21T14:45:32.785Z,10.13
2018-10-21T14:48:07.395Z,9.73
2018-10-21T14:50:42.031Z,12.57
2018-10-21T14:53:16.627Z,9.90
2018-10-21T14:55:53.454Z,9.10
2018-10-21T14:58:28.172Z,10.33
2018-10-21T15:01:02.899Z,9.97
2018-10-21T15:03:37.493Z,10.20
2018-10-21T15:06:12.264Z,10.80
2018-10-21T15:08:46.797Z,11.07
2018-10-21T15:11:21.309Z,9.73
2018-10-21T15:13:56.065Z,9.17
2018-10-21T15:16:30.669Z,10.47
2018-10-21T15:19:41.015Z,10.10
2018-10-21T15:22:15.839Z,10.37
2018-10-21T15:24:50.422Z,10.10
2018-10-21T15:27:24.888Z,9.13
2018-10-21T15:29:59.737Z,9.10
2018-10-21T15:32:34.176Z,9.50
2018-10-21T15:35:09.101Z,9.97
2018-10-21T15:37:43.674Z,9.80
2018-10-21T15:40:18.280Z,8.60
2018-10-21T15:42:52.953Z,9.10
2018-10-21T15:45:27.655Z,10.70
2018-10-21T15:48:02.278Z,9.93
2018-10-21T15:50:37.040Z,10.50
2018-10-21T15:53:11.552Z,9.10
2018-10-21T15:55:46.272Z,9.70
2018-10-21T15:58:20.841Z,12.30
2018-10-21T16:00:55.452Z,10.00
2018-10-21T16:03:30.130Z,13.40
2018-10-21T16:06:11.206Z,10.57
2018-10-21T16:08:46.051Z,11.93
2018-10-21T16:11:20.652Z,10.47
2018-10-21T16:13:55.311Z,12.10
2018-10-21T16:16:29.969Z,11.30
2018-10-21T16:19:04.522Z,10.17
2018-10-21T16:21:39.008Z,11.07
2018-10-21T16:24:13.709Z,11.00
2018-10-21T16:26:48.405Z,10.30
2018-10-21T16:29:23.046Z,11.63
2018-10-21T16:31:58.427Z,10.47
2018-10-21T16:34:32.978Z,11.03
2018-10-21T16:37:07.659Z,11.23
2018-10-21T16:39:43.056Z,11.50
2018-10-21T16:42:17.606Z,11.70
2018-10-21T16:44:52.300Z,10.70
2018-10-21T16:47:26.802Z,11.40
2018-10-21T16:50:01.546Z,12.60
2018-10-21T16:52:36.684Z,11.40
2018-10-21T16:55:17.294Z,14.33
2018-10-21T16:57:51.789Z,12.73
2018-10-21T17:00:26.311Z,12.30
2018-10-21T17:03:00.790Z,12.43
2018-10-21T17:05:35.236Z,12.30
2018-10-21T17:08:09.890Z,11.80
2018-10-21T17:10:44.460Z,11.73
2018-10-21T17:13:19.003Z,10.20
2018-10-21T17:15:53.608Z,10.70
2018-10-21T17:18:28.145Z,13.30
2018-10-21T17:21:02.913Z,14.53
2018-10-21T17:23:37.445Z,14.33
2018-10-21T17:26:12.052Z,12.87
2018-10-21T17:28:46.833Z,13.03
2018-10-21T17:31:21.840Z,12.97
2018-10-21T17:33:56.953Z,16.30
2018-10-21T17:36:31.706Z,12.03
2018-10-21T17:39:09.823Z,12.80
2018-10-21T17:41:44.533Z,14.40
2018-10-21T17:44:19.061Z,13.00
2018-10-21T17:46:53.566Z,14.47
2018-10-21T17:49:28.183Z,13.33
2018-10-21T17:52:02.966Z,13.77
2018-10-21T17:54:37.562Z,12.57
2018-10-21T17:57:12.342Z,13.50
2018-10-21T17:59:47.023Z,13.30
2018-10-21T18:02:21.553Z,14.07
2018-10-21T18:04:56.115Z,13.13
2018-10-21T18:07:30.810Z,14.30
2018-10-21T18:10:05.582Z,14.13
2018-10-21T18:12:40.282Z,13.97
2018-10-21T18:15:14.841Z,14.87
2018-10-21T18:17:49.454Z,15.60
2018-10-21T18:20:24.551Z,16.10
2018-10-21T18:23:03.238Z,14.30
2018-10-21T18:25:37.888Z,15.33
2018-10-21T18:28:12.509Z,16.57
2018-10-21T18:30:47.186Z,16.27
2018-10-21T18:33:23.028Z,16.47
2018-10-21T18:35:57.664Z,15.83
2018-10-21T18:38:32.429Z,15.50
2018-10-21T18:41:07.237Z,15.33
2018-10-21T18:43:41.684Z,16.77
2018-10-21T18:46:16.506Z,15.50
2018-10-21T18:48:51.237Z,15.37
2018-10-21T18:51:26.093Z,15.93
2018-10-21T18:54:00.716Z,16.70
2018-10-21T18:56:35.396Z,16.37
2018-10-21T18:59:09.969Z,16.40
2018-10-21T19:01:44.724Z,16.17
2018-10-21T19:04:19.343Z,15.77
2018-10-21T19:06:54.189Z,17.70
2018-10-21T19:09:28.874Z,15.70
2018-10-21T19:12:03.577Z,16.50
2018-10-21T19:14:38.221Z,15.37
2018-10-21T19:17:12.985Z,16.00
2018-10-21T19:19:47.687Z,18.73
2018-10-21T19:22:22.325Z,15.60
2018-10-21T19:24:57.063Z,15.43
2018-10-21T19:27:31.631Z,16.50
2018-10-21T19:30:07.349Z,16.27
2018-10-21T19:32:42.445Z,18.13
2018-10-21T19:35:17.274Z,15.33
2018-10-21T19:37:51.836Z,17.70
2018-10-21T19:40:26.486Z,18.00
2018-10-21T19:43:01.079Z,17.60
2018-10-21T19:45:35.798Z,16.80
2018-10-21T19:48:10.598Z,17.83
2018-10-21T19:50:45.324Z,17.10
2018-10-21T19:53:19.961Z,18.30
2018-10-21T19:55:54.435Z,19.80
2018-10-21T19:58:28.983Z,17.53
2018-10-21T20:01:03.601Z,18.80
2018-10-21T20:03:38.157Z,18.20
2018-10-21T20:06:12.776Z,18.57
2018-10-21T20:08:47.314Z,17.03
2018-10-21T20:11:21.866Z,18.47
2018-10-21T20:13:56.334Z,18.73
2018-10-21T20:16:30.911Z,17.33
2018-10-21T20:19:05.755Z,16.27
2018-10-21T20:21:40.253Z,17.60
2018-10-21T20:24:14.938Z,18.13
2018-10-21T20:26:49.481Z,17.70
2018-10-21T20:29:24.181Z,17.97
2018-10-21T20:31:58.675Z,17.40
2018-10-21T20:34:33.492Z,17.50
2018-10-21T20:37:07.993Z,19.47
2018-10-21T20:39:42.694Z,17.70
2018-10-21T20:42:17.372Z,18.57
2018-10-21T20:44:51.951Z,17.10
2018-10-21T20:47:26.405Z,17.07
2018-10-21T20:50:00.869Z,18.60
2018-10-21T20:52:35.505Z,19.67
2018-10-21T20:55:10.129Z,18.00
2018-10-21T20:57:44.862Z,17.23
2018-10-21T21:00:19.507Z,19.77
2018-10-21T21:02:53.954Z,18.03
2018-10-21T21:05:28.652Z,18.27
2018-10-21T21:08:03.450Z,17.00
2018-10-21T21:10:38.092Z,17.20
2018-10-21T21:13:12.631Z,17.10
2018-10-21T21:15:47.221Z,17.13
2018-10-21T21:18:22.050Z,16.63
2018-10-21T21:20:56.575Z,18.10
2018-10-21T21:23:31.104Z,17.33
2018-10-21T21:26:05.720Z,18.63
2018-10-21T21:28:40.416Z,18.30
2018-10-21T21:31:14.918Z,17.70
2018-10-21T21:33:49.676Z,18.40
2018-10-21T21:36:24.392Z,18.47
2018-10-21T21:38:58.916Z,17.10
2018-10-21T21:41:33.480Z,17.37
2018-10-21T21:44:08.481Z,17.67
2018-10-21T21:46:43.526Z,18.00
2018-10-21T21:49:18.113Z,17.70
2018-10-21T21:51:52.712Z,20.17
2018-10-21T21:54:28.403Z,19.73
2018-10-21T21:57:02.980Z,18.13
2018-10-21T21:59:37.469Z,17.80
2018-10-21T22:02:12.053Z,18.73
2018-10-21T22:04:46.807Z,16.80
2018-10-21T22:07:21.492Z,18.60
2018-10-21T22:09:56.233Z,19.40
2018-10-21T22:12:30.952Z,18.73
2018-10-21T22:15:05.633Z,17.83
2018-10-21T22:17:43.948Z,19.20
2018-10-21T22:20:18.651Z,18.53
2018-10-21T22:22:53.309Z,19.60
2018-10-21T22:25:28.460Z,19.30
2018-10-21T22:28:03.179Z,18.00
2018-10-21T22:30:37.658Z,18.40
2018-10-21T22:33:12.340Z,18.60
2018-10-21T22:35:46.811Z,19.70
2018-10-21T22:38:21.419Z,19.27
2018-10-21T22:40:56.104Z,19.17
2018-10-21T22:43:30.806Z,18.87
2018-10-21T22:46:05.688Z,18.57
2018-10-21T22:48:40.115Z,18.43
2018-10-21T22:51:14.819Z,18.13
2018-10-21T22:53:49.457Z,19.07
2018-10-21T22:56:24.029Z,18.13
2018-10-21T22:58:58.660Z,18.37
2018-10-21T23:01:33.429Z,17.50
2018-10-21T23:04:08.144Z,19.27
2018-10-21T23:06:42.788Z,19.33
2018-10-21T23:09:17.400Z,17.00
2018-10-21T23:11:51.898Z,18.03
2018-10-21T23:14:26.487Z,17.30
2018-10-21T23:17:00.997Z,17.53
2018-10-21T23:19:44.313Z,18.00
2018-10-21T23:22:18.936Z,17.60
2018-10-21T23:24:53.472Z,17.53
2018-10-21T23:27:27.932Z,18.23
2018-10-21T23:30:02.529Z,18.53
2018-10-21T23:32:36.946Z,18.33
2018-10-21T23:35:11.676Z,17.30
2018-10-21T23:37:46.192Z,17.90
2018-10-21T23:40:20.849Z,18.00
2018-10-21T23:42:55.276Z,17.57
2018-10-21T23:45:29.926Z,16.33
2018-10-21T23:48:04.635Z,17.77
2018-10-21T23:50:39.207Z,18.17
2018-10-21T23:53:13.773Z,15.93
2018-10-21T23:55:48.225Z,16.07
2018-10-21T23:58:22.672Z,17.00
